KHWO

North Perry Airport

Hollywood, Florida, USA
METAR KHWO 190253Z AUTO 12003KT 10SM CLR 29/24 A2998 RMK AO2 SLP151 T02890244 51017
Observed Flight Rules
Sep-19 @ 02:53 UTC (25 minutes ago) Visual Flight Rules
Wind Visibility Clouds
120° at 3 knots 10 miles
  • Clear skies
Temperatures Readings
Current 29°C / 84°F
Dewpoint 24°C / 75°F
Humidity 74%
Altimeter 29.98" Hg
Pressure 1015.1 hPa
Elevation 2
METAR KHWO 190253Z AUTO 12003KT 10SM CLR 29/24 A2998 RMK AO2 SLP151 T02890244 51017
Observed Flight Rules
Sep-19 @ 02:53 UTC
(25 minutes ago)
VFR
Wind Visibility
120° at 3 knots 10 miles
Clouds
  • Clear skies
Temperature Dewpoint
29°C / 84°F 24°C / 75°F
Humidity Altimeter Pressure
74% 29.98" Hg 1015.1 hPa